Latest Weather Observations for Coles Point

IDS60801

Issued at 12:02 pm CDT Saturday 25 March 2017 (issued every 30 minutes, with the page automatically refreshed every 10 minutes)

About weather observations | Map of weather stations | Latest weather observations for SA | Other Formats
Station Details ID: 018191 Name: COLES POINT Lat: -34.37 Lon: 135.37 Height: 28.0 m
Data from the previous 72 hours. | See also: Recent months at Coles Point
Date/Time
CDT
Temp
°C
App
Temp
°C
Dew
Point
°C
Rel
Hum
%
Delta-T
°C
Wind Press
QNH
hPa
Press
MSL
hPa
Rain since
9am
mm
Dir  Spd
km/h
Gust
km/h
Spd
kts
Gust
kts
25/12:00pm 21.7 22.9 17.3 76 2.7 SW 7 9 4 5 1015.0 1015.0 0.0
25/11:30am 21.4 21.6 15.7 70 3.4 SW 9 11 5 6 1015.0 1015.0 0.0
25/11:00am 22.2 22.7 15.1 64 4.2 SW 6 9 3 5 1014.6 1014.6 0.0
25/10:30am 21.8 22.1 14.4 63 4.3 SE 6 7 3 4 1014.6 1014.6 0.0
25/10:00am 21.3 21.7 14.7 66 3.9 SSE 6 9 3 5 1014.4 1014.4 0.0
25/09:30am 20.2 21.1 15.0 72 3.1 SSE 4 6 2 3 1014.1 1014.1 0.0
25/09:00am 19.1 20.5 16.3 84 1.7 S 4 7 2 4 1013.6 1013.6 0.0
25/08:30am 18.8 20.8 16.9 89 1.1 S 2 2 1 1 1013.6 1013.6 0.0
25/08:00am 18.7 20.3 17.0 90 1.0 SSE 4 6 2 3 1013.3 1013.3 0.0
25/07:30am 18.7 20.0 17.0 90 1.0 SSE 6 6 3 3 1013.1 1013.1 0.0
25/07:00am 18.4 19.9 16.6 89 1.1 SSW 4 6 2 3 1013.1 1013.1 0.0
25/06:30am 18.6 19.8 16.8 89 1.1 SW 6 7 3 4 1012.8 1012.8 0.0
25/06:00am 18.1 19.5 15.5 85 1.5 ENE 2 4 1 2 1012.2 1012.2 0.0
25/05:30am 17.7 19.0 15.1 85 1.5 ENE 2 4 1 2 1012.0 1012.0 0.0
25/05:00am 18.0 19.0 15.4 85 1.5 E 4 7 2 4 1012.0 1012.0 0.0
25/04:30am 18.0 19.2 16.0 88 1.2 SE 4 7 2 4 1012.0 1012.0 0.0
25/04:00am 19.0 19.3 17.0 88 1.2 SSE 11 15 6 8 1011.9 1011.9 0.0
25/03:30am 18.6 19.2 15.7 83 1.7 SSW 7 11 4 6 1011.6 1011.6 0.0
25/03:00am 18.3 19.2 15.2 82 1.8 E 4 6 2 3 1011.6 1011.6 0.0
25/02:30am 18.3 19.3 15.4 83 1.7 SSW 4 7 2 4 1011.9 1011.9 0.0
25/02:00am 19.2 20.7 15.7 80 2.1 SW 2 4 1 2 1012.1 1012.1 0.0
25/01:30am 20.3 21.1 14.9 71 3.2 WNW 4 7 2 4 1012.5 1012.5 0.0
25/01:00am 22.1 22.7 14.2 61 4.6 NNW 4 9 2 5 1012.7 1012.7 0.0
25/12:30am 22.2 20.6 13.8 59 4.9 NNE 15 20 8 11 1012.6 1012.6 0.0
25/12:00am 22.5 20.0 13.6 57 5.2 NNE 19 22 10 12 1012.7 1012.7 0.0
 
Date/Time
CDT
Temp
°C
App
Temp
°C
Dew
Point
°C
Rel
Hum
%
Delta-T
°C
Wind Press
QNH
hPa
Press
MSL
hPa
Rain since
9am
mm
Dir  Spd
km/h
Gust
km/h
Spd
kts
Gust
kts
24/11:30pm 22.0 20.5 14.1 61 4.6 NNE 15 19 8 10 1012.7 1012.7 0.0
24/11:00pm 21.9 20.1 14.5 63 4.3 NNE 17 20 9 11 1012.9 1012.9 0.0
24/10:30pm 21.6 20.6 14.7 65 4.1 NNE 13 17 7 9 1013.1 1013.1 0.0
24/10:00pm 21.1 21.7 15.9 72 3.1 ENE 7 13 4 7 1013.4 1013.4 0.0
24/09:30pm 20.9 21.7 16.3 75 2.8 SSE 7 9 4 5 1013.3 1013.3 0.0
24/09:00pm 20.8 21.3 16.6 77 2.5 SSW 9 13 5 7 1013.6 1013.6 0.0
24/08:30pm 20.8 19.8 16.6 77 2.5 S 17 24 9 13 1013.3 1013.3 0.0
24/08:00pm 21.2 20.4 16.0 72 3.1 S 15 24 8 13 1012.6 1012.6 0.0
24/07:30pm 22.0 21.1 14.9 64 4.2 SSW 13 20 7 11 1013.0 1013.0 0.0
24/07:00pm 23.4 22.9 14.9 59 5.1 SSE 11 26 6 14 1012.7 1012.7 0.0
24/06:30pm 24.4 24.1 14.5 54 5.9 SE 9 13 5 7 1012.2 1012.2 0.0
24/06:00pm 24.1 24.0 16.1 61 4.9 SE 11 15 6 8 1012.2 1012.2 0.0
24/05:30pm 23.7 22.4 15.7 61 4.8 S 17 24 9 13 1012.4 1012.4 0.0
24/05:00pm 23.8 24.2 16.3 63 4.6 WSW 9 13 5 7 1012.2 1012.2 0.0
24/04:30pm 25.1 24.5 15.7 56 5.7 W 13 19 7 10 1012.6 1012.6 0.0
24/04:00pm 26.1 26.0 14.9 50 6.7 WSW 9 13 5 7 1012.3 1012.3 0.0
24/03:30pm 25.7 25.5 15.7 54 6.1 WSW 11 15 6 8 1012.5 1012.5 0.0
24/03:00pm 24.9 24.7 15.8 57 5.5 WSW 11 15 6 8 1012.9 1012.9 0.0
24/02:30pm 26.0 25.6 16.3 55 6.0 WSW 13 17 7 9 1013.1 1013.1 0.0
24/02:00pm 24.9 25.6 16.1 58 5.4 W 7 11 4 6 1013.0 1013.0 0.0
24/01:30pm 26.4 26.1 15.4 50 6.7 WNW 11 19 6 10 1013.4 1013.4 0.0
24/01:00pm 27.0 27.4 16.3 52 6.6 WNW 9 15 5 8 1013.6 1013.6 0.0
24/12:30pm 26.3 26.2 16.0 53 6.3 WNW 11 17 6 9 1013.8 1013.8 0.0
24/12:00pm 26.1 25.7 16.1 54 6.1 NW 13 17 7 9 1013.4 1013.4 0.0
24/11:30am 26.6 27.0 16.2 52 6.4 NNW 9 13 5 7 1013.3 1013.3 0.0
24/11:00am 25.7 26.1 16.3 56 5.8 NNE 9 13 5 7 1013.4 1013.4 0.0
24/10:30am 23.7 24.2 16.5 64 4.4 NE 9 15 5 8 1013.7 1013.7 0.0
24/10:00am 23.2 22.2 16.5 66 4.1 NE 17 22 9 12 1013.2 1013.2 0.0
24/09:30am 22.1 21.4 16.4 70 3.5 NNE 15 19 8 10 1013.4 1013.4 0.0
24/09:00am 21.6 21.2 16.3 72 3.2 NNE 13 19 7 10 1013.4 1013.4 0.0
24/08:30am 19.8 20.5 17.0 84 1.7 NNE 9 13 5 7 1013.1 1013.1 0.0
24/08:00am 17.0 16.9 15.0 88 1.2 NE 9 11 5 6 1013.0 1013.0 0.0
24/07:30am 16.3 16.4 13.8 85 1.4 ENE 6 7 3 4 1012.8 1012.8 0.0
24/07:00am 17.4 18.1 14.5 83 1.7 ENE 4 6 2 3 1013.1 1013.1 0.0
24/06:30am 19.2 19.1 16.1 82 1.9 NNE 11 15 6 8 1013.1 1013.1 0.0
24/06:00am 19.2 18.0 16.1 82 1.9 NNE 17 20 9 11 1012.7 1012.7 0.0
24/05:30am 18.9 17.9 15.6 81 2.0 NNE 15 19 8 10 1012.4 1012.4 0.0
24/05:00am 19.1 17.8 15.8 81 2.0 NNE 17 20 9 11 1012.4 1012.4 0.0
24/04:30am 18.8 18.2 15.7 82 1.8 NNE 13 17 7 9 1012.4 1012.4 0.0
24/04:00am 18.6 18.0 15.7 83 1.7 NE 13 15 7 8 1013.1 1013.1 0.0
24/03:30am 18.3 17.5 15.2 82 1.8 NE 13 15 7 8 1013.4 1013.4 0.0
24/03:00am 18.6 17.6 15.7 83 1.7 ENE 15 19 8 10 1013.5 1013.5 0.0
24/02:30am 17.9 18.8 15.2 84 1.6 ENE 4 9 2 5 1013.9 1013.9 0.0
24/02:00am 18.2 19.2 15.3 83 1.7 NE 4 6 2 3 1014.1 1014.1 0.0
24/01:30am 18.0 18.1 15.4 85 1.5 ENE 9 13 5 7 1014.0 1014.0 0.0
24/01:00am 17.8 17.8 15.1 84 1.6 NE 9 13 5 7 1014.6 1014.6 0.0
24/12:30am 17.9 17.7 14.8 82 1.8 ENE 9 11 5 6 1015.2 1015.2 0.0
24/12:00am 17.6 18.5 13.9 79 2.1 E 2 7 1 4 1015.7 1015.7 0.0
 
Date/Time
CDT
Temp
°C
App
Temp
°C
Dew
Point
°C
Rel
Hum
%
Delta-T
°C
Wind Press
QNH
hPa
Press
MSL
hPa
Rain since
9am
mm
Dir  Spd
km/h
Gust
km/h
Spd
kts
Gust
kts
23/11:30pm 18.0 18.2 14.7 81 1.9 NE 7 9 4 5 1015.5 1015.5 0.0
23/11:00pm 17.7 17.3 14.2 80 2.0 ENE 9 13 5 7 1015.6 1015.6 0.0
23/10:30pm 17.7 17.0 14.2 80 2.0 ESE 11 13 6 7 1016.2 1016.2 0.0
23/10:00pm 17.9 17.1 14.0 78 2.2 SE 11 13 6 7 1016.6 1016.6 0.0
23/09:30pm 18.6 17.8 14.1 75 2.6 SSE 11 15 6 8 1017.1 1017.1 0.0
23/09:00pm 18.9 18.9 13.5 71 3.1 SE 6 9 3 5 1016.6 1016.6 0.0
23/08:30pm 19.7 19.3 14.1 70 3.2 SE 9 11 5 6 1016.2 1016.2 0.0
23/08:00pm 20.2 19.5 14.3 69 3.4 ESE 11 15 6 8 1016.1 1016.1 0.0
23/07:30pm 21.1 20.0 14.3 65 4.0 ESE 13 17 7 9 1016.0 1016.0 0.0
23/07:00pm 22.3 21.0 14.7 62 4.5 ESE 15 22 8 12 1015.8 1015.8 0.0
23/06:30pm 24.2 22.7 14.3 54 5.8 ESE 15 20 8 11 1015.6 1015.6 0.0
23/06:00pm 24.9 23.0 14.1 51 6.4 ESE 17 24 9 13 1015.5 1015.5 0.0
23/05:30pm 24.9 23.5 14.4 52 6.2 E 15 20 8 11 1015.3 1015.3 0.0
23/05:00pm 26.4 25.0 14.5 48 7.1 ESE 15 20 8 11 1015.2 1015.2 0.0
23/04:30pm 26.1 24.5 13.9 47 7.2 ESE 15 26 8 14 1015.1 1015.1 0.0
23/04:00pm 26.6 25.2 14.4 47 7.3 ESE 15 24 8 13 1015.0 1015.0 0.0
23/03:30pm 25.8 23.9 14.3 49 6.8 ESE 17 26 9 14 1015.3 1015.3 0.0
23/03:00pm 25.6 24.2 14.4 50 6.7 ESE 15 26 8 14 1015.6 1015.6 0.0
23/02:30pm 26.0 24.3 14.8 50 6.7 E 17 32 9 17 1015.8 1015.8 0.0
23/02:00pm 24.8 22.3 15.1 54 5.8 E 22 33 12 18 1015.9 1015.9 0.0
23/01:30pm 24.6 21.6 14.7 54 5.9 ESE 24 35 13 19 1016.6 1016.6 0.0
23/01:00pm 24.1 20.7 14.8 56 5.5 E 26 37 14 20 1016.8 1016.8 0.0
23/12:30pm 23.1 19.7 14.7 59 5.0 E 26 35 14 19 1017.4 1017.4 0.0
23/12:00pm 22.6 18.7 14.4 60 4.8 E 28 37 15 20 1017.8 1017.8 0.0
23/11:30am 22.7 19.6 14.5 60 4.8 E 24 33 13 18 1018.2 1018.2 0.0
23/11:00am 22.2 18.9 15.1 64 4.2 ESE 26 37 14 20 1018.4 1018.3 0.0
23/10:30am 21.4 17.8 15.3 68 3.6 E 28 37 15 20 1018.2 1018.2 0.0
23/10:00am 21.1 18.2 15.2 69 3.5 ESE 24 35 13 19 1018.2 1018.2 0.0
23/09:30am 20.8 18.4 15.4 71 3.2 ESE 22 30 12 16 1018.0 1018.0 0.0
23/09:00am 20.1 18.2 15.1 73 2.9 ESE 19 28 10 15 1018.5 1018.4 0.0
23/08:30am 19.6 17.5 14.8 74 2.8 ESE 19 24 10 13 1017.9 1017.9 0.0
23/08:00am 19.3 17.6 14.8 75 2.6 E 17 22 9 12 1017.5 1017.5 0.0
23/07:30am 19.1 17.7 14.6 75 2.6 E 15 22 8 12 1017.6 1017.6 0.0
23/07:00am 19.0 17.2 14.5 75 2.6 ESE 17 24 9 13 1017.5 1017.5 0.0
23/06:30am 18.9 17.2 14.8 77 2.4 E 17 24 9 13 1017.2 1017.2 0.0
23/06:00am 18.6 16.8 14.5 77 2.4 E 17 24 9 13 1016.6 1016.6 0.0
23/05:30am 18.5 16.4 14.6 78 2.3 ESE 19 26 10 14 1016.6 1016.6 0.0
23/05:00am 18.4 16.9 14.3 77 2.4 ESE 15 24 8 13 1016.7 1016.7 0.0
23/04:30am 18.4 16.9 14.3 77 2.4 ESE 15 22 8 12 1016.9 1016.9 0.0
23/04:00am 18.3 15.9 14.4 78 2.3 ESE 20 26 11 14 1017.2 1017.2 0.0
23/03:30am 18.3 15.9 14.4 78 2.2 SE 20 26 11 14 1017.6 1017.6 0.0
23/03:00am 18.4 16.2 14.5 78 2.3 SE 19 24 10 13 1017.9 1017.9 0.0
23/02:30am 18.7 16.2 14.2 75 2.6 ESE 20 24 11 13 1018.0 1018.0 0.0
23/02:00am 18.7 16.8 14.2 75 2.6 ESE 17 26 9 14 1018.0 1018.0 0.0
23/01:30am 18.6 16.3 14.1 75 2.6 ESE 19 22 10 12 1018.4 1018.3 0.0
23/01:00am 18.7 16.3 13.8 73 2.8 SE 19 24 10 13 1018.8 1018.7 0.0
23/12:30am 18.8 16.4 13.9 73 2.8 ESE 19 24 10 13 1019.1 1019.0 0.0
23/12:00am 19.0 16.6 13.8 72 3.0 SE 19 28 10 15 1019.2 1019.1 0.0
 
Date/Time
CDT
Temp
°C
App
Temp
°C
Dew
Point
°C
Rel
Hum
%
Delta-T
°C
Wind Press
QNH
hPa
Press
MSL
hPa
Rain since
9am
mm
Dir  Spd
km/h
Gust
km/h
Spd
kts
Gust
kts
22/11:30pm 19.1 17.0 13.7 71 3.1 SE 17 24 9 13 1019.7 1019.6 0.0
22/11:00pm 19.2 17.1 13.6 70 3.2 SE 17 22 9 12 1019.5 1019.4 0.0
22/10:30pm 19.3 16.8 13.5 69 3.3 SE 19 28 10 15 1019.3 1019.2 0.0
22/10:00pm 19.4 16.8 13.3 68 3.5 SE 19 28 10 15 1019.1 1019.0 0.0
22/09:30pm 19.6 16.7 14.0 70 3.2 ESE 22 32 12 17 1018.7 1018.6 0.0
22/09:00pm 19.5 17.0 14.1 71 3.1 ESE 20 26 11 14 1018.6 1018.5 0.0
22/08:30pm 19.8 17.5 14.2 70 3.2 SE 19 26 10 14 1018.4 1018.3 0.0
22/08:00pm 19.7 16.8 13.9 69 3.3 ESE 22 33 12 18 1018.2 1018.2 0.0
22/07:30pm 20.0 17.1 13.9 68 3.5 SE 22 32 12 17 1017.6 1017.6 0.0
22/07:00pm 20.4 16.7 13.8 66 3.8 ESE 26 35 14 19 1017.2 1017.2 0.0
22/06:30pm 21.9 17.5 14.0 61 4.6 SE 30 43 16 23 1017.0 1017.0 0.0
22/06:00pm 22.3 17.4 13.6 58 5.0 ESE 32 43 17 23 1016.7 1016.7 0.0
22/05:30pm 23.0 18.5 13.8 56 5.4 SE 30 43 16 23 1016.8 1016.8 0.0
22/05:00pm 22.9 18.7 13.4 55 5.5 ESE 28 39 15 21 1017.1 1017.1 0.0
22/04:30pm 22.7 18.5 13.5 56 5.3 ESE 28 43 15 23 1017.1 1017.1 0.0
22/04:00pm 23.9 19.0 13.7 53 6.0 ESE 32 48 17 26 1016.9 1016.9 0.0
22/03:51pm 24.1 20.1 14.2 54 5.8 ESE 28 48 15 26 1017.0 1017.0 0.0
22/03:30pm 23.9 19.0 13.7 53 6.0 ESE 32 44 17 24 1017.2 1017.2 0.0
22/03:00pm 23.0 18.1 13.8 56 5.4 ESE 32 43 17 23 1017.7 1017.7 0.0
22/02:30pm 23.9 19.8 13.7 53 6.0 ESE 28 41 15 22 1017.7 1017.7 0.0
22/02:00pm 23.0 18.1 13.8 56 5.4 ESE 32 43 17 23 1017.9 1017.9 0.0
22/01:30pm 24.4 19.9 13.9 52 6.2 ESE 30 43 16 23 1018.0 1018.0 0.0
22/01:00pm 23.4 19.3 13.8 54 5.6 SE 28 39 15 21 1018.4 1018.3 0.0
22/12:55pm 22.9 18.8 13.9 57 5.3 SE 28 48 15 26 1018.5 1018.4 0.0
22/12:30pm 23.1 19.1 14.1 57 5.3 SE 28 41 15 22 1018.9 1018.8 0.0

Other Formats:

Comma delimited format used in spreadsheet applications
http://www.bom.gov.au/fwo/IDS60801/IDS60801.94658.axf

JavaScript Object Notation format (JSON) in row-major order
http://www.bom.gov.au/fwo/IDS60801/IDS60801.94658.json